sensor_id;sensor_type;location;lat;lon;timestamp;temperature;humidity
16744;DHT22;71724;-33.900;151.182;2023-07-24T00:00:32;13.20;92.00
16744;DHT22;71724;-33.900;151.182;2023-07-24T00:03:03;13.20;91.90
16744;DHT22;71724;-33.900;151.182;2023-07-24T00:05:30;13.30;92.50
16744;DHT22;71724;-33.900;151.182;2023-07-24T00:07:57;13.50;92.10
16744;DHT22;71724;-33.900;151.182;2023-07-24T00:10:25;13.50;91.90
16744;DHT22;71724;-33.900;151.182;2023-07-24T00:12:52;13.50;91.70
16744;DHT22;71724;-33.900;151.182;2023-07-24T00:15:20;13.50;91.40
16744;DHT22;71724;-33.900;151.182;2023-07-24T00:17:47;13.50;91.50
16744;DHT22;71724;-33.900;151.182;2023-07-24T00:20:15;13.60;91.40
16744;DHT22;71724;-33.900;151.182;2023-07-24T00:22:42;13.70;91.60
16744;DHT22;71724;-33.900;151.182;2023-07-24T00:25:09;13.80;92.00
16744;DHT22;71724;-33.900;151.182;2023-07-24T00:27:37;13.90;91.60
16744;DHT22;71724;-33.900;151.182;2023-07-24T00:30:04;14.00;91.50
16744;DHT22;71724;-33.900;151.182;2023-07-24T00:32:32;14.10;91.40
16744;DHT22;71724;-33.900;151.182;2023-07-24T00:34:59;14.10;90.60
16744;DHT22;71724;-33.900;151.182;2023-07-24T00:37:27;14.20;90.80
16744;DHT22;71724;-33.900;151.182;2023-07-24T00:39:55;14.20;90.40
16744;DHT22;71724;-33.900;151.182;2023-07-24T00:42:22;14.20;90.30
16744;DHT22;71724;-33.900;151.182;2023-07-24T00:44:50;14.20;90.30
16744;DHT22;71724;-33.900;151.182;2023-07-24T00:47:18;14.30;90.00
16744;DHT22;71724;-33.900;151.182;2023-07-24T00:49:45;14.20;89.60
16744;DHT22;71724;-33.900;151.182;2023-07-24T00:52:13;14.30;89.50
16744;DHT22;71724;-33.900;151.182;2023-07-24T00:54:41;14.20;89.10
16744;DHT22;71724;-33.900;151.182;2023-07-24T00:57:10;14.30;89.40
16744;DHT22;71724;-33.900;151.182;2023-07-24T00:59:38;14.20;89.00
16744;DHT22;71724;-33.900;151.182;2023-07-24T01:02:05;14.20;88.90
16744;DHT22;71724;-33.900;151.182;2023-07-24T01:04:33;14.20;89.10
16744;DHT22;71724;-33.900;151.182;2023-07-24T01:07:00;14.30;89.10
16744;DHT22;71724;-33.900;151.182;2023-07-24T01:09:28;14.20;88.80
16744;DHT22;71724;-33.900;151.182;2023-07-24T01:12:04;14.20;88.90
16744;DHT22;71724;-33.900;151.182;2023-07-24T01:14:55;14.20;89.00
16744;DHT22;71724;-33.900;151.182;2023-07-24T01:17:25;14.30;89.10
16744;DHT22;71724;-33.900;151.182;2023-07-24T01:19:56;14.30;88.80
16744;DHT22;71724;-33.900;151.182;2023-07-24T01:22:39;14.20;87.80
16744;DHT22;71724;-33.900;151.182;2023-07-24T01:25:34;14.20;87.70
16744;DHT22;71724;-33.900;151.182;2023-07-24T01:28:07;14.20;87.90
16744;DHT22;71724;-33.900;151.182;2023-07-24T01:30:35;14.20;88.00
16744;DHT22;71724;-33.900;151.182;2023-07-24T01:33:03;14.20;87.90
16744;DHT22;71724;-33.900;151.182;2023-07-24T01:35:31;14.20;88.00
16744;DHT22;71724;-33.900;151.182;2023-07-24T01:38:00;14.20;88.10
16744;DHT22;71724;-33.900;151.182;2023-07-24T01:40:28;14.30;88.00
16744;DHT22;71724;-33.900;151.182;2023-07-24T01:42:56;14.30;87.90
16744;DHT22;71724;-33.900;151.182;2023-07-24T01:45:26;14.30;88.10
16744;DHT22;71724;-33.900;151.182;2023-07-24T01:47:53;14.30;88.00
16744;DHT22;71724;-33.900;151.182;2023-07-24T01:50:20;14.30;87.80
16744;DHT22;71724;-33.900;151.182;2023-07-24T01:52:48;14.30;87.30
16744;DHT22;71724;-33.900;151.182;2023-07-24T01:55:18;14.30;87.20
16744;DHT22;71724;-33.900;151.182;2023-07-24T01:57:45;14.20;86.70
16744;DHT22;71724;-33.900;151.182;2023-07-24T02:00:13;14.30;86.80
16744;DHT22;71724;-33.900;151.182;2023-07-24T02:02:40;14.30;86.80
16744;DHT22;71724;-33.900;151.182;2023-07-24T02:05:08;14.30;86.20
16744;DHT22;71724;-33.900;151.182;2023-07-24T02:07:35;14.30;85.80
16744;DHT22;71724;-33.900;151.182;2023-07-24T02:10:03;14.30;85.10
16744;DHT22;71724;-33.900;151.182;2023-07-24T02:12:30;14.40;85.10
16744;DHT22;71724;-33.900;151.182;2023-07-24T02:14:58;14.40;85.00
16744;DHT22;71724;-33.900;151.182;2023-07-24T02:17:26;14.40;84.80
16744;DHT22;71724;-33.900;151.182;2023-07-24T02:19:53;14.40;84.80
16744;DHT22;71724;-33.900;151.182;2023-07-24T02:22:21;14.50;84.90
16744;DHT22;71724;-33.900;151.182;2023-07-24T02:24:48;14.40;84.60
16744;DHT22;71724;-33.900;151.182;2023-07-24T02:27:31;14.40;84.60
16744;DHT22;71724;-33.900;151.182;2023-07-24T02:30:02;14.40;84.70
16744;DHT22;71724;-33.900;151.182;2023-07-24T02:32:29;14.50;84.80
16744;DHT22;71724;-33.900;151.182;2023-07-24T02:34:56;14.50;84.40
16744;DHT22;71724;-33.900;151.182;2023-07-24T02:37:24;14.60;84.20
16744;DHT22;71724;-33.900;151.182;2023-07-24T02:39:54;14.60;84.30
16744;DHT22;71724;-33.900;151.182;2023-07-24T02:42:22;14.70;83.80
16744;DHT22;71724;-33.900;151.182;2023-07-24T02:44:49;14.70;83.40
16744;DHT22;71724;-33.900;151.182;2023-07-24T02:47:16;14.80;83.40
16744;DHT22;71724;-33.900;151.182;2023-07-24T02:49:44;14.80;82.80
16744;DHT22;71724;-33.900;151.182;2023-07-24T02:52:11;14.90;82.90
16744;DHT22;71724;-33.900;151.182;2023-07-24T02:54:39;14.90;82.20
16744;DHT22;71724;-33.900;151.182;2023-07-24T02:57:06;15.00;82.50
16744;DHT22;71724;-33.900;151.182;2023-07-24T02:59:33;15.10;82.00
16744;DHT22;71724;-33.900;151.182;2023-07-24T03:02:01;15.20;82.20
16744;DHT22;71724;-33.900;151.182;2023-07-24T03:04:29;15.20;81.60
16744;DHT22;71724;-33.900;151.182;2023-07-24T03:06:57;15.30;81.60
16744;DHT22;71724;-33.900;151.182;2023-07-24T03:09:24;15.40;81.60
16744;DHT22;71724;-33.900;151.182;2023-07-24T03:11:52;15.50;81.40
16744;DHT22;71724;-33.900;151.182;2023-07-24T03:14:19;15.40;80.20
16744;DHT22;71724;-33.900;151.182;2023-07-24T03:16:46;15.50;79.90
16744;DHT22;71724;-33.900;151.182;2023-07-24T03:19:14;15.40;79.90
16744;DHT22;71724;-33.900;151.182;2023-07-24T03:21:44;15.40;79.70
16744;DHT22;71724;-33.900;151.182;2023-07-24T03:24:11;15.30;79.40
16744;DHT22;71724;-33.900;151.182;2023-07-24T03:26:38;15.30;79.90
16744;DHT22;71724;-33.900;151.182;2023-07-24T03:29:06;15.30;80.10
16744;DHT22;71724;-33.900;151.182;2023-07-24T03:31:33;15.30;79.90
16744;DHT22;71724;-33.900;151.182;2023-07-24T03:34:01;15.30;80.20
16744;DHT22;71724;-33.900;151.182;2023-07-24T03:36:28;15.30;80.20
16744;DHT22;71724;-33.900;151.182;2023-07-24T03:38:55;15.30;80.50
16744;DHT22;71724;-33.900;151.182;2023-07-24T03:41:23;15.30;80.00
16744;DHT22;71724;-33.900;151.182;2023-07-24T03:43:50;15.30;79.70
16744;DHT22;71724;-33.900;151.182;2023-07-24T03:46:18;15.30;80.10
16744;DHT22;71724;-33.900;151.182;2023-07-24T03:48:45;15.30;79.90
16744;DHT22;71724;-33.900;151.182;2023-07-24T03:51:12;15.30;79.80
16744;DHT22;71724;-33.900;151.182;2023-07-24T03:53:40;15.30;80.20
16744;DHT22;71724;-33.900;151.182;2023-07-24T03:56:07;15.30;80.20
16744;DHT22;71724;-33.900;151.182;2023-07-24T03:58:35;15.30;80.10
16744;DHT22;71724;-33.900;151.182;2023-07-24T04:01:02;15.30;79.70
16744;DHT22;71724;-33.900;151.182;2023-07-24T04:03:29;15.40;79.60
16744;DHT22;71724;-33.900;151.182;2023-07-24T04:05:57;15.40;79.20
16744;DHT22;71724;-33.900;151.182;2023-07-24T04:08:24;15.50;79.80
16744;DHT22;71724;-33.900;151.182;2023-07-24T04:10:52;15.60;79.90
16744;DHT22;71724;-33.900;151.182;2023-07-24T04:13:19;15.70;79.80
16744;DHT22;71724;-33.900;151.182;2023-07-24T04:15:46;15.80;79.80
16744;DHT22;71724;-33.900;151.182;2023-07-24T04:18:14;15.90;79.10
16744;DHT22;71724;-33.900;151.182;2023-07-24T04:20:41;16.00;78.90
16744;DHT22;71724;-33.900;151.182;2023-07-24T04:23:09;16.00;78.50
16744;DHT22;71724;-33.900;151.182;2023-07-24T04:25:36;16.10;77.90
16744;DHT22;71724;-33.900;151.182;2023-07-24T04:28:04;16.10;77.50
16744;DHT22;71724;-33.900;151.182;2023-07-24T04:30:33;16.20;78.00
16744;DHT22;71724;-33.900;151.182;2023-07-24T04:33:00;16.20;77.80
16744;DHT22;71724;-33.900;151.182;2023-07-24T04:35:28;16.20;77.00
16744;DHT22;71724;-33.900;151.182;2023-07-24T04:37:55;16.20;76.40
16744;DHT22;71724;-33.900;151.182;2023-07-24T04:40:24;16.20;75.70
16744;DHT22;71724;-33.900;151.182;2023-07-24T04:42:51;16.20;75.50
16744;DHT22;71724;-33.900;151.182;2023-07-24T04:45:19;16.20;75.90
16744;DHT22;71724;-33.900;151.182;2023-07-24T04:47:47;16.20;76.20
16744;DHT22;71724;-33.900;151.182;2023-07-24T04:50:14;16.20;76.20
16744;DHT22;71724;-33.900;151.182;2023-07-24T04:52:41;16.20;76.40
16744;DHT22;71724;-33.900;151.182;2023-07-24T04:55:09;16.10;76.00
16744;DHT22;71724;-33.900;151.182;2023-07-24T04:57:36;16.10;75.90
16744;DHT22;71724;-33.900;151.182;2023-07-24T05:00:04;16.00;76.20
16744;DHT22;71724;-33.900;151.182;2023-07-24T05:02:32;16.00;76.10
16744;DHT22;71724;-33.900;151.182;2023-07-24T05:04:59;16.00;77.00
16744;DHT22;71724;-33.900;151.182;2023-07-24T05:07:26;16.00;76.50
16744;DHT22;71724;-33.900;151.182;2023-07-24T05:09:54;16.00;76.70
16744;DHT22;71724;-33.900;151.182;2023-07-24T05:12:21;16.00;76.90
16744;DHT22;71724;-33.900;151.182;2023-07-24T05:14:52;15.90;76.70
16744;DHT22;71724;-33.900;151.182;2023-07-24T05:17:20;15.90;76.90
16744;DHT22;71724;-33.900;151.182;2023-07-24T05:19:47;15.90;76.90
16744;DHT22;71724;-33.900;151.182;2023-07-24T05:22:14;15.90;77.10
16744;DHT22;71724;-33.900;151.182;2023-07-24T05:24:42;15.90;77.20
16744;DHT22;71724;-33.900;151.182;2023-07-24T05:27:09;15.90;77.30
16744;DHT22;71724;-33.900;151.182;2023-07-24T05:29:38;15.80;77.00
16744;DHT22;71724;-33.900;151.182;2023-07-24T05:32:06;15.80;77.30
16744;DHT22;71724;-33.900;151.182;2023-07-24T05:34:33;15.80;77.20
16744;DHT22;71724;-33.900;151.182;2023-07-24T05:37:01;15.80;77.30
16744;DHT22;71724;-33.900;151.182;2023-07-24T05:39:30;15.80;77.10
16744;DHT22;71724;-33.900;151.182;2023-07-24T05:41:57;15.80;77.00
16744;DHT22;71724;-33.900;151.182;2023-07-24T05:44:24;15.80;77.00
16744;DHT22;71724;-33.900;151.182;2023-07-24T05:46:52;15.70;77.00
16744;DHT22;71724;-33.900;151.182;2023-07-24T05:49:19;15.70;77.00
16744;DHT22;71724;-33.900;151.182;2023-07-24T05:51:46;15.70;77.20
16744;DHT22;71724;-33.900;151.182;2023-07-24T05:54:14;15.70;77.40
16744;DHT22;71724;-33.900;151.182;2023-07-24T05:56:41;15.70;77.10
16744;DHT22;71724;-33.900;151.182;2023-07-24T05:59:08;15.70;77.80
16744;DHT22;71724;-33.900;151.182;2023-07-24T06:01:36;15.70;77.60
16744;DHT22;71724;-33.900;151.182;2023-07-24T06:04:04;15.60;77.50
16744;DHT22;71724;-33.900;151.182;2023-07-24T06:06:34;15.60;77.30
16744;DHT22;71724;-33.900;151.182;2023-07-24T06:09:03;15.60;77.10
16744;DHT22;71724;-33.900;151.182;2023-07-24T06:11:31;15.60;77.00
16744;DHT22;71724;-33.900;151.182;2023-07-24T06:13:58;15.50;76.80
16744;DHT22;71724;-33.900;151.182;2023-07-24T06:16:26;15.50;77.20
16744;DHT22;71724;-33.900;151.182;2023-07-24T06:18:53;15.50;77.30
16744;DHT22;71724;-33.900;151.182;2023-07-24T06:21:20;15.50;77.80
16744;DHT22;71724;-33.900;151.182;2023-07-24T06:23:48;15.50;77.70
16744;DHT22;71724;-33.900;151.182;2023-07-24T06:26:15;15.50;77.70
16744;DHT22;71724;-33.900;151.182;2023-07-24T06:28:43;15.50;77.50
16744;DHT22;71724;-33.900;151.182;2023-07-24T06:31:11;15.40;77.30
16744;DHT22;71724;-33.900;151.182;2023-07-24T06:33:38;15.40;77.50
16744;DHT22;71724;-33.900;151.182;2023-07-24T06:36:09;15.40;77.70
16744;DHT22;71724;-33.900;151.182;2023-07-24T06:38:37;15.30;78.00
16744;DHT22;71724;-33.900;151.182;2023-07-24T06:41:04;15.30;78.00
16744;DHT22;71724;-33.900;151.182;2023-07-24T06:43:32;15.30;78.30
16744;DHT22;71724;-33.900;151.182;2023-07-24T06:45:59;15.30;78.40
16744;DHT22;71724;-33.900;151.182;2023-07-24T06:48:27;15.30;78.50
16744;DHT22;71724;-33.900;151.182;2023-07-24T06:50:54;15.30;78.50
16744;DHT22;71724;-33.900;151.182;2023-07-24T06:53:22;15.20;78.70
16744;DHT22;71724;-33.900;151.182;2023-07-24T06:55:49;15.20;78.80
16744;DHT22;71724;-33.900;151.182;2023-07-24T06:58:17;15.20;79.00
16744;DHT22;71724;-33.900;151.182;2023-07-24T07:00:44;15.20;79.20
16744;DHT22;71724;-33.900;151.182;2023-07-24T07:03:11;15.20;79.60
16744;DHT22;71724;-33.900;151.182;2023-07-24T07:05:39;15.20;79.60
16744;DHT22;71724;-33.900;151.182;2023-07-24T07:08:06;15.10;79.70
16744;DHT22;71724;-33.900;151.182;2023-07-24T07:10:33;15.10;79.70
16744;DHT22;71724;-33.900;151.182;2023-07-24T07:13:01;15.00;79.80
16744;DHT22;71724;-33.900;151.182;2023-07-24T07:15:28;15.00;79.90
16744;DHT22;71724;-33.900;151.182;2023-07-24T07:17:56;15.00;80.20
16744;DHT22;71724;-33.900;151.182;2023-07-24T07:20:23;14.90;80.00
16744;DHT22;71724;-33.900;151.182;2023-07-24T07:22:51;14.80;80.30
16744;DHT22;71724;-33.900;151.182;2023-07-24T07:25:18;14.80;80.20
16744;DHT22;71724;-33.900;151.182;2023-07-24T07:27:45;14.70;80.40
16744;DHT22;71724;-33.900;151.182;2023-07-24T07:30:14;14.70;80.50
16744;DHT22;71724;-33.900;151.182;2023-07-24T07:32:41;14.70;80.40
16744;DHT22;71724;-33.900;151.182;2023-07-24T07:35:08;14.50;80.60
16744;DHT22;71724;-33.900;151.182;2023-07-24T07:37:36;14.50;80.90
16744;DHT22;71724;-33.900;151.182;2023-07-24T07:40:03;14.50;81.00
16744;DHT22;71724;-33.900;151.182;2023-07-24T07:42:31;14.40;81.10
16744;DHT22;71724;-33.900;151.182;2023-07-24T07:44:58;14.30;81.20
16744;DHT22;71724;-33.900;151.182;2023-07-24T07:47:26;14.20;81.20
16744;DHT22;71724;-33.900;151.182;2023-07-24T07:49:53;14.20;81.30
16744;DHT22;71724;-33.900;151.182;2023-07-24T07:52:21;14.20;81.40
16744;DHT22;71724;-33.900;151.182;2023-07-24T07:54:49;14.20;81.70
16744;DHT22;71724;-33.900;151.182;2023-07-24T07:57:16;14.20;81.90
16744;DHT22;71724;-33.900;151.182;2023-07-24T07:59:44;14.10;81.80
16744;DHT22;71724;-33.900;151.182;2023-07-24T08:02:11;14.00;81.80
16744;DHT22;71724;-33.900;151.182;2023-07-24T08:04:38;14.00;82.00
16744;DHT22;71724;-33.900;151.182;2023-07-24T08:07:06;13.90;82.00
16744;DHT22;71724;-33.900;151.182;2023-07-24T08:09:33;13.90;82.30
16744;DHT22;71724;-33.900;151.182;2023-07-24T08:12:02;13.90;82.30
16744;DHT22;71724;-33.900;151.182;2023-07-24T08:14:30;13.90;82.30
16744;DHT22;71724;-33.900;151.182;2023-07-24T08:16:57;13.80;82.40
16744;DHT22;71724;-33.900;151.182;2023-07-24T08:19:28;13.80;82.30
16744;DHT22;71724;-33.900;151.182;2023-07-24T08:21:56;13.70;82.50
16744;DHT22;71724;-33.900;151.182;2023-07-24T08:24:23;13.70;82.60
16744;DHT22;71724;-33.900;151.182;2023-07-24T08:26:51;13.70;82.50
16744;DHT22;71724;-33.900;151.182;2023-07-24T08:29:18;13.70;82.90
16744;DHT22;71724;-33.900;151.182;2023-07-24T08:31:46;13.70;82.80
16744;DHT22;71724;-33.900;151.182;2023-07-24T08:34:14;13.70;82.80
16744;DHT22;71724;-33.900;151.182;2023-07-24T08:36:41;13.60;82.80
16744;DHT22;71724;-33.900;151.182;2023-07-24T08:39:08;13.60;82.80
16744;DHT22;71724;-33.900;151.182;2023-07-24T08:41:37;13.50;82.90
16744;DHT22;71724;-33.900;151.182;2023-07-24T08:44:07;13.50;83.10
16744;DHT22;71724;-33.900;151.182;2023-07-24T08:46:38;13.50;83.10
16744;DHT22;71724;-33.900;151.182;2023-07-24T08:49:12;13.50;83.20
16744;DHT22;71724;-33.900;151.182;2023-07-24T08:51:41;13.40;83.30
16744;DHT22;71724;-33.900;151.182;2023-07-24T08:54:09;13.50;83.70
16744;DHT22;71724;-33.900;151.182;2023-07-24T08:56:39;13.50;83.50
16744;DHT22;71724;-33.900;151.182;2023-07-24T08:59:08;13.40;83.40
16744;DHT22;71724;-33.900;151.182;2023-07-24T09:01:35;13.40;83.50
16744;DHT22;71724;-33.900;151.182;2023-07-24T09:04:03;13.30;83.60
16744;DHT22;71724;-33.900;151.182;2023-07-24T09:06:30;13.30;83.60
16744;DHT22;71724;-33.900;151.182;2023-07-24T09:08:57;13.30;84.00
16744;DHT22;71724;-33.900;151.182;2023-07-24T09:11:25;13.30;83.80
16744;DHT22;71724;-33.900;151.182;2023-07-24T09:13:52;13.30;83.50
16744;DHT22;71724;-33.900;151.182;2023-07-24T09:16:24;13.30;83.50
16744;DHT22;71724;-33.900;151.182;2023-07-24T09:18:52;13.30;83.50
16744;DHT22;71724;-33.900;151.182;2023-07-24T09:21:29;13.20;83.50
16744;DHT22;71724;-33.900;151.182;2023-07-24T09:23:57;13.20;83.80
16744;DHT22;71724;-33.900;151.182;2023-07-24T09:26:25;13.20;83.70
16744;DHT22;71724;-33.900;151.182;2023-07-24T09:28:54;13.20;83.80
16744;DHT22;71724;-33.900;151.182;2023-07-24T09:31:22;13.20;84.10
16744;DHT22;71724;-33.900;151.182;2023-07-24T09:33:49;13.20;84.00
16744;DHT22;71724;-33.900;151.182;2023-07-24T09:36:17;13.10;84.10
16744;DHT22;71724;-33.900;151.182;2023-07-24T09:38:44;13.20;84.40
16744;DHT22;71724;-33.900;151.182;2023-07-24T09:41:12;13.20;84.10
16744;DHT22;71724;-33.900;151.182;2023-07-24T09:43:42;13.10;84.10
16744;DHT22;71724;-33.900;151.182;2023-07-24T09:46:12;13.10;84.10
16744;DHT22;71724;-33.900;151.182;2023-07-24T09:48:43;13.10;84.10
16744;DHT22;71724;-33.900;151.182;2023-07-24T09:51:12;13.10;84.30
16744;DHT22;71724;-33.900;151.182;2023-07-24T09:53:47;13.10;84.50
16744;DHT22;71724;-33.900;151.182;2023-07-24T09:56:18;13.10;85.00
16744;DHT22;71724;-33.900;151.182;2023-07-24T09:58:47;13.20;84.90
16744;DHT22;71724;-33.900;151.182;2023-07-24T10:01:16;13.20;84.30
16744;DHT22;71724;-33.900;151.182;2023-07-24T10:03:49;13.20;84.30
16744;DHT22;71724;-33.900;151.182;2023-07-24T10:06:18;13.20;83.80
16744;DHT22;71724;-33.900;151.182;2023-07-24T10:08:47;13.20;83.60
16744;DHT22;71724;-33.900;151.182;2023-07-24T10:11:15;13.10;83.60
16744;DHT22;71724;-33.900;151.182;2023-07-24T10:13:43;13.00;83.80
16744;DHT22;71724;-33.900;151.182;2023-07-24T10:16:10;12.90;84.00
16744;DHT22;71724;-33.900;151.182;2023-07-24T10:18:47;13.00;84.70
16744;DHT22;71724;-33.900;151.182;2023-07-24T10:21:16;13.00;84.50
16744;DHT22;71724;-33.900;151.182;2023-07-24T10:23:45;13.00;84.00
16744;DHT22;71724;-33.900;151.182;2023-07-24T10:26:15;13.00;84.70
16744;DHT22;71724;-33.900;151.182;2023-07-24T10:28:43;13.10;84.70
16744;DHT22;71724;-33.900;151.182;2023-07-24T10:33:48;13.00;83.80
16744;DHT22;71724;-33.900;151.182;2023-07-24T10:36:21;12.90;83.80
16744;DHT22;71724;-33.900;151.182;2023-07-24T10:38:54;12.90;84.60
16744;DHT22;71724;-33.900;151.182;2023-07-24T10:41:21;12.90;84.40
16744;DHT22;71724;-33.900;151.182;2023-07-24T10:43:58;12.90;84.20
16744;DHT22;71724;-33.900;151.182;2023-07-24T10:46:36;12.90;84.60
16744;DHT22;71724;-33.900;151.182;2023-07-24T10:49:04;12.90;84.70
16744;DHT22;71724;-33.900;151.182;2023-07-24T10:51:32;12.90;84.30
16744;DHT22;71724;-33.900;151.182;2023-07-24T10:54:04;12.80;84.50
16744;DHT22;71724;-33.900;151.182;2023-07-24T10:56:32;12.90;84.90
16744;DHT22;71724;-33.900;151.182;2023-07-24T10:59:05;12.80;84.40
16744;DHT22;71724;-33.900;151.182;2023-07-24T11:01:33;12.80;84.60
16744;DHT22;71724;-33.900;151.182;2023-07-24T11:04:00;12.70;84.50
16744;DHT22;71724;-33.900;151.182;2023-07-24T11:06:28;12.70;84.80
16744;DHT22;71724;-33.900;151.182;2023-07-24T11:08:57;12.70;85.00
16744;DHT22;71724;-33.900;151.182;2023-07-24T11:11:32;12.70;84.90
16744;DHT22;71724;-33.900;151.182;2023-07-24T11:14:01;12.70;85.10
16744;DHT22;71724;-33.900;151.182;2023-07-24T11:16:30;12.70;85.40
16744;DHT22;71724;-33.900;151.182;2023-07-24T11:18:59;12.70;85.20
16744;DHT22;71724;-33.900;151.182;2023-07-24T11:21:27;12.70;85.10
16744;DHT22;71724;-33.900;151.182;2023-07-24T11:23:56;12.70;85.30
16744;DHT22;71724;-33.900;151.182;2023-07-24T11:26:25;12.70;84.70
16744;DHT22;71724;-33.900;151.182;2023-07-24T11:28:54;12.70;85.10
16744;DHT22;71724;-33.900;151.182;2023-07-24T11:31:21;12.70;85.10
16744;DHT22;71724;-33.900;151.182;2023-07-24T11:33:52;12.60;85.00
16744;DHT22;71724;-33.900;151.182;2023-07-24T11:36:20;12.60;85.30
16744;DHT22;71724;-33.900;151.182;2023-07-24T11:38:49;12.60;85.20
16744;DHT22;71724;-33.900;151.182;2023-07-24T11:41:20;12.60;85.10
16744;DHT22;71724;-33.900;151.182;2023-07-24T11:43:50;12.50;85.40
16744;DHT22;71724;-33.900;151.182;2023-07-24T11:46:27;12.50;85.40
16744;DHT22;71724;-33.900;151.182;2023-07-24T11:48:55;12.50;85.60
16744;DHT22;71724;-33.900;151.182;2023-07-24T11:51:26;12.50;85.50
16744;DHT22;71724;-33.900;151.182;2023-07-24T11:54:07;12.50;85.90
16744;DHT22;71724;-33.900;151.182;2023-07-24T11:56:34;12.50;85.60
16744;DHT22;71724;-33.900;151.182;2023-07-24T11:59:16;12.50;85.70
16744;DHT22;71724;-33.900;151.182;2023-07-24T12:01:49;12.50;85.80
16744;DHT22;71724;-33.900;151.182;2023-07-24T12:04:17;12.60;85.70
16744;DHT22;71724;-33.900;151.182;2023-07-24T12:06:45;12.70;85.60
16744;DHT22;71724;-33.900;151.182;2023-07-24T12:09:12;12.70;85.50
16744;DHT22;71724;-33.900;151.182;2023-07-24T12:11:43;12.70;85.50
16744;DHT22;71724;-33.900;151.182;2023-07-24T12:14:11;12.70;84.80
16744;DHT22;71724;-33.900;151.182;2023-07-24T12:16:39;12.70;84.90
16744;DHT22;71724;-33.900;151.182;2023-07-24T12:19:06;12.70;84.80
16744;DHT22;71724;-33.900;151.182;2023-07-24T12:21:34;12.70;85.20
16744;DHT22;71724;-33.900;151.182;2023-07-24T12:24:01;12.60;85.10
16744;DHT22;71724;-33.900;151.182;2023-07-24T12:26:28;12.60;85.10
16744;DHT22;71724;-33.900;151.182;2023-07-24T12:28:56;12.60;85.60
16744;DHT22;71724;-33.900;151.182;2023-07-24T12:31:26;12.70;85.10
16744;DHT22;71724;-33.900;151.182;2023-07-24T12:33:53;12.50;84.80
16744;DHT22;71724;-33.900;151.182;2023-07-24T12:36:20;12.50;85.00
16744;DHT22;71724;-33.900;151.182;2023-07-24T12:38:48;12.50;85.00
16744;DHT22;71724;-33.900;151.182;2023-07-24T12:41:15;12.40;85.10
16744;DHT22;71724;-33.900;151.182;2023-07-24T12:43:44;12.50;85.10
16744;DHT22;71724;-33.900;151.182;2023-07-24T12:46:11;12.40;85.00
16744;DHT22;71724;-33.900;151.182;2023-07-24T12:48:38;12.40;85.20
16744;DHT22;71724;-33.900;151.182;2023-07-24T12:51:06;12.30;84.80
16744;DHT22;71724;-33.900;151.182;2023-07-24T12:53:33;12.20;84.90
16744;DHT22;71724;-33.900;151.182;2023-07-24T12:56:00;12.20;84.90
16744;DHT22;71724;-33.900;151.182;2023-07-24T12:58:28;12.20;85.00
16744;DHT22;71724;-33.900;151.182;2023-07-24T13:00:55;12.10;85.30
16744;DHT22;71724;-33.900;151.182;2023-07-24T13:03:22;12.20;85.30
16744;DHT22;71724;-33.900;151.182;2023-07-24T13:05:50;12.10;85.20
16744;DHT22;71724;-33.900;151.182;2023-07-24T13:08:17;12.00;85.20
16744;DHT22;71724;-33.900;151.182;2023-07-24T13:10:48;12.00;85.40
16744;DHT22;71724;-33.900;151.182;2023-07-24T13:13:15;12.00;85.40
16744;DHT22;71724;-33.900;151.182;2023-07-24T13:15:43;12.00;85.70
16744;DHT22;71724;-33.900;151.182;2023-07-24T13:18:10;12.00;85.50
16744;DHT22;71724;-33.900;151.182;2023-07-24T13:20:41;12.00;85.60
16744;DHT22;71724;-33.900;151.182;2023-07-24T13:23:08;12.00;85.50
16744;DHT22;71724;-33.900;151.182;2023-07-24T13:25:35;11.90;85.70
16744;DHT22;71724;-33.900;151.182;2023-07-24T13:28:03;12.00;85.80
16744;DHT22;71724;-33.900;151.182;2023-07-24T13:30:30;12.10;85.60
16744;DHT22;71724;-33.900;151.182;2023-07-24T13:32:57;12.00;85.60
16744;DHT22;71724;-33.900;151.182;2023-07-24T13:35:25;12.10;85.20
16744;DHT22;71724;-33.900;151.182;2023-07-24T13:37:52;12.10;85.50
16744;DHT22;71724;-33.900;151.182;2023-07-24T13:40:19;12.00;85.10
16744;DHT22;71724;-33.900;151.182;2023-07-24T13:42:47;12.10;86.10
16744;DHT22;71724;-33.900;151.182;2023-07-24T13:45:14;12.20;85.90
16744;DHT22;71724;-33.900;151.182;2023-07-24T13:47:42;12.20;85.40
16744;DHT22;71724;-33.900;151.182;2023-07-24T13:50:09;12.20;85.30
16744;DHT22;71724;-33.900;151.182;2023-07-24T13:52:37;12.20;85.40
16744;DHT22;71724;-33.900;151.182;2023-07-24T13:55:05;12.20;85.10
16744;DHT22;71724;-33.900;151.182;2023-07-24T13:57:33;12.20;85.10
16744;DHT22;71724;-33.900;151.182;2023-07-24T14:00:00;12.20;85.20
16744;DHT22;71724;-33.900;151.182;2023-07-24T14:02:28;12.10;84.60
16744;DHT22;71724;-33.900;151.182;2023-07-24T14:04:58;12.10;85.00
16744;DHT22;71724;-33.900;151.182;2023-07-24T14:07:25;12.20;85.40
16744;DHT22;71724;-33.900;151.182;2023-07-24T14:09:53;12.20;84.50
16744;DHT22;71724;-33.900;151.182;2023-07-24T14:12:20;12.10;84.50
16744;DHT22;71724;-33.900;151.182;2023-07-24T14:14:47;12.20;85.00
16744;DHT22;71724;-33.900;151.182;2023-07-24T14:17:15;12.20;85.00
16744;DHT22;71724;-33.900;151.182;2023-07-24T14:19:42;12.10;84.50
16744;DHT22;71724;-33.900;151.182;2023-07-24T14:22:09;12.00;84.40
16744;DHT22;71724;-33.900;151.182;2023-07-24T14:24:37;12.10;85.30
16744;DHT22;71724;-33.900;151.182;2023-07-24T14:27:04;12.00;84.70
16744;DHT22;71724;-33.900;151.182;2023-07-24T14:29:32;12.10;84.90
16744;DHT22;71724;-33.900;151.182;2023-07-24T14:32:00;12.00;84.30
16744;DHT22;71724;-33.900;151.182;2023-07-24T14:34:27;11.90;84.30
16744;DHT22;71724;-33.900;151.182;2023-07-24T14:36:54;12.00;84.70
16744;DHT22;71724;-33.900;151.182;2023-07-24T14:39:22;11.90;84.40
16744;DHT22;71724;-33.900;151.182;2023-07-24T14:41:49;11.80;84.50
16744;DHT22;71724;-33.900;151.182;2023-07-24T14:44:16;11.90;85.60
16744;DHT22;71724;-33.900;151.182;2023-07-24T14:46:44;11.80;84.70
16744;DHT22;71724;-33.900;151.182;2023-07-24T14:49:11;11.80;84.50
16744;DHT22;71724;-33.900;151.182;2023-07-24T14:51:38;11.80;84.60
16744;DHT22;71724;-33.900;151.182;2023-07-24T14:54:06;11.80;84.60
16744;DHT22;71724;-33.900;151.182;2023-07-24T14:56:34;11.70;84.80